Main page
METAR-TAF:

METAR-TAF

Airports :

Yerevan, Armenia

Zvartnots International Airport

latitude: 40-08-50N, longitude: 044-23-45E, elevation: 865 m

Current weather observation

The report was made 19 minutes ago, at 04:30 UTC
Wind 4 kt from the East
Temperature 3°C
Humidity 93%
Pressure 1014 hPa
Visibility 10 km or more
Scattered clouds at a height of 4300 ft

METAR: UDYZ 200430Z 09004KT 9999 SCT043 03/02 Q1014 R09/190065 NOSIG

Time: 08:49 (04:49 UTC)

Forecast

The report was made 5 hours and 44 minutes ago, at 23:05 UTC
Forecast valid from 20 at 00 UTC to 20 at 24 UTC
Wind 4 kt from variable directions
Visibility 10 km or more
Scattered clouds at a height of 4000 ft
Temporary
from 20 at 00 UTC to 20 at 06 UTC
Overcast at a height of 2000 ft
light rain

TAF: UDYZ 192305Z 2000/2024 VRB04KT 9999 SCT040 TEMPO 2000/2006 -RA OVC020

Weather observations and forecasts of more than 4000 airports (METAR and TAF reports).

The available stations are represented by yellow and red dots on the map.

Hover mouse over dot to see the name of the station.

Then click to see weather observations and forecasts.

To change the map : click on the green buttons with a black cross to zoom in, on the green button with a dash to zoom out, or on the green arrows for adjacent maps.


METAR-TAF: